• Join FlightAware (Why Join?)
  • Login
  • US Flag 
11:57PM EST


 

Airport Tracker/Info


-or-


 

Live Flight TrackerFlight Track Log ✈ AWE1262 ✈ 20-Jun-2013 ✈ KPHL - KMHT

Flight Track Log - Related Links

Times and Time Zones

All times are in EDT time to prevent confusion due to time zone crossing. See the AWE1262 flight status page for this flight to view local times or setup timezone preferences in your user account.

Time Position Orientation Groundspeed Altitude Reporting Facility
EDT Latitude Longitude Course Direction KTS MPH feet Rate Location/Type
09:29PM 39.8500 -75.2833 37° Northeast 163 188 1,300  Level Philadelphia TRACON
09:30PM 39.8167 -75.3333 229° Southwest 217 250 3,200 2,280 Climbing Philadelphia TRACON
09:31PM 39.8037 -74.8017 105° East  Level FlightAware Approximate
09:31PM 39.7333 -75.3333 180° South 293 337 6,100  Level Philadelphia TRACON
09:32PM 39.8106 -74.6728 37° Northeast  Level FlightAware Approximate
09:33PM 39.9018 -74.5815 37° Northeast  Level FlightAware Approximate
09:33PM 39.7319 -75.1492 91° East 314 361 9,800  Level New York Center
09:34PM 39.9966 -74.5034 37° Northeast  Level FlightAware Approximate
09:34PM 39.7511 -75.0261 79° East 312 359 11,500  Level New York Center
09:35PM 39.7683 -74.8975 80° East 347 399 12,000 1,260 Climbing New York Center
09:36PM 39.7875 -74.7664 79° East 359 413 14,100 2,100 Climbing New York Center
09:37PM 39.8428 -74.6722 53° Northeast 354 407 16,200 2,040 Climbing New York Center
09:38PM 39.9289 -74.5850 38° Northeast 360 414 18,200 2,160 Climbing New York Center
09:39PM 40.0233 -74.4981 35° Northeast 378 435 20,700 2,160 Climbing New York Center
09:40PM 40.1206 -74.4569 18° North 386 444 22,500 1,680 Climbing New York Center
09:41PM 40.2339 -74.4306 10° North 391 450 24,100 1,500 Climbing New York Center
09:42PM 40.3472 -74.4039 10° North 398 458 25,500 1,260 Climbing New York Center
09:43PM 40.4692 -74.3747 10° North 422 486 26,700 1,200 Climbing New York Center
09:44PM 40.5931 -74.3431 11° North 439 505 28,000 1,560 Climbing New York Center
09:46PM 40.8808 -74.2794 North 463 533 31,900 1,500 Climbing Boston Center
09:47PM 41.0042 -74.2497 10° North 451 519 33,000 540 Climbing Boston Center
09:48PM 41.1297 -74.2175 11° North 445 512 33,000  Level Boston Center
09:49PM 41.2658 -74.1800 12° North 450 518 33,000  Level Boston Center
09:50PM 41.3914 -74.1472 11° North 450 518 33,000 -300 Level Boston Center
09:51PM 41.5189 -74.1147 11° North 455 524 32,500 -600 Descending Boston Center
09:53PM 41.6422 -74.0875 North 476 548 31,800 -780 Descending Boston Center
09:54PM 41.7972 -74.0469 11° North 476 548 30,800 -900 Descending Boston Center
09:55PM 41.9206 -74.0194 North 460 529 30,100 -900 Descending Boston Center
09:56PM 42.0458 -73.9861 11° North 455 524 29,100 -1,800 Descending Boston Center
09:57PM 42.1453 -73.8850 37° Northeast 443 510 26,600 -1,560 Descending Boston Center
09:58PM 42.2075 -73.7322 61° Northeast 430 495 26,000 -360 Descending Boston Center
09:59PM 42.2717 -73.5764 61° Northeast 458 527 25,900 -780 Descending Boston Center
10:00PM 42.3294 -73.4342 61° Northeast 443 510 24,500 -1,500 Descending Boston Center
10:01PM 42.3953 -73.2892 58° Northeast 431 496 23,000 -780 Descending Boston Center
10:02PM 42.4875 -73.2058 34° Northeast 411 473 23,000 -780 Level Boston Center
10:03PM 42.5383 -73.0797 61° Northeast 394 453 21,500 -1,560 Descending Boston Center
10:04PM 42.5847 -72.9392 66° East 398 458 19,900 -1,560 Descending Boston Center
10:05PM 42.6311 -72.7983 66° East 374 430 18,400 -1,500 Descending Boston Center
10:06PM 42.6731 -72.6689 66° East 366 421 17,000 -1,380 Descending Boston Center
10:07PM 42.7131 -72.5475 66° East 361 415 15,700 -1,380 Descending Boston Center
10:08PM 42.7547 -72.4231 65° Northeast 356 410 14,300 -1,380 Descending Boston Center
10:09PM 42.7922 -72.2986 68° East 356 410 13,000 -1,380 Descending Boston Center
10:10PM 42.8044 -72.1714 82° East 338 389 11,600 -1,320 Descending Boston Center
10:11PM 42.8125 -72.0494 85° East 327 376 10,400 -1,260 Descending Boston Center
10:12PM 42.8222 -71.9078 85° East 317 365 8,900 -1,380 Descending Boston Center
10:13PM 42.8008 -71.8119 107° East 301 346 7,400 -1,560 Descending Boston Center
10:14PM 42.7794 -71.6906 103° East 296 341 5,800 -1,500 Descending Boston Center
10:15PM 42.7619 -71.5975 104° East 291 335 4,400 -1,140 Descending Boston Center
10:16PM 42.7528 -71.4928 97° East 266 306 3,600 -900 Descending Boston Center
10:17PM 42.7708 -71.4133 73° East 225 259 2,600 -780 Descending Boston Center
10:18PM 42.8039 -71.3619 49° Northeast 191 220 2,100 -540 Descending Boston Center